Dades meteomassalio
Diari Summary for Gener 19, 2017 Units:  Metric    English   Both
« Previous Day
Next Day »
Diari Semanal Mensual Anual Personalitzat
  Maxima: Minima: Mijana:
Temperatura: 2.4 °C -4.4 °C -0.3 °C
Rosada: -2.0 °C -6.8 °C -4.2 °C
Humitat: 88 % 65 % 76 %
Velocitat del vent: 16.7 km/h 0.0 km/h 2.7 km/h
Racha vent: 16.7 km/h - -
Vent:- - West
Pressio: 1028.0 hPa 1024.3 hPa -
Pluja: 0.0 mm    
Historical Graphs
 
 
Tabular Data for Gener 19, 2017
Time Temperature Dew Point Pressure Wind Wind Speed Wind Gust Humidity Rainfall Rate (Hourly) solar Conditions
00:02 -2.2 °C -5.9 °C 1027.3 hPa Calm     76 % 0.0 mm 0.0 W/m2 CLR
00:07 -2.6 °C -6.3 °C 1027.3 hPa Calm     76 % 0.0 mm 0.0 W/m2 CLR
00:12 -2.9 °C -6.3 °C 1027.3 hPa Calm     77 % 0.0 mm 0.0 W/m2 CLR
00:17 -3.1 °C -6.4 °C 1027.3 hPa Calm     78 % 0.0 mm 0.0 W/m2 CLR
00:22 -3.3 °C -6.4 °C 1027.3 hPa Calm     79 % 0.0 mm 0.0 W/m2 CLR
00:27 -3.3 °C -6.3 °C 1027.3 hPa SW 5.6 km/h 5.6 km/h 80 % 0.0 mm 0.0 W/m2 CLR
00:32 -3.2 °C -6.0 °C 1027.3 hPa SW 7.4 km/h 7.4 km/h 81 % 0.0 mm 0.0 W/m2 CLR
00:37 -2.9 °C -5.7 °C 1027.3 hPa SW 5.6 km/h 5.6 km/h 81 % 0.0 mm 0.0 W/m2 CLR
00:42 -2.8 °C -5.8 °C 1027.3 hPa SSW 6.4 km/h 6.4 km/h 80 % 0.0 mm 0.0 W/m2 CLR
00:47 -2.8 °C -5.8 °C 1027.3 hPa SW 7.4 km/h 7.4 km/h 80 % 0.0 mm 0.0 W/m2 CLR
00:52 -2.8 °C -5.8 °C 1027.3 hPa SW 9.3 km/h 9.3 km/h 80 % 0.0 mm 0.0 W/m2 CLR
00:57 -2.9 °C -5.8 °C 1027.3 hPa SW 9.3 km/h 9.3 km/h 80 % 0.0 mm 0.0 W/m2 CLR
01:02 -2.8 °C -5.8 °C 1027.3 hPa WSW 6.4 km/h 6.4 km/h 80 % 0.0 mm 0.0 W/m2 CLR
01:07 -2.7 °C -5.7 °C 1027.3 hPa SW 6.4 km/h 6.4 km/h 80 % 0.0 mm 0.0 W/m2 CLR
01:12 -2.7 °C -5.7 °C 1027.3 hPa SW 6.4 km/h 6.4 km/h 80 % 0.0 mm 0.0 W/m2 CLR
01:17 -2.6 °C -5.6 °C 1027.3 hPa WSW 8.0 km/h 8.0 km/h 80 % 0.0 mm 0.0 W/m2 CLR
01:22 -2.6 °C -5.7 °C 1027.3 hPa Calm     79 % 0.0 mm 0.0 W/m2 CLR
01:27 -2.9 °C -6.2 °C 1027.3 hPa Calm     78 % 0.0 mm 0.0 W/m2 CLR
01:32 -3.1 °C -6.2 °C 1027.3 hPa Calm     79 % 0.0 mm 0.0 W/m2 CLR
01:37 -3.4 °C -6.5 °C 1027.3 hPa Calm     79 % 0.0 mm 0.0 W/m2 CLR
01:42 -3.6 °C -6.6 °C 1027.3 hPa Calm     80 % 0.0 mm 0.0 W/m2 CLR
01:47 -3.7 °C -6.5 °C 1027.3 hPa Calm     81 % 0.0 mm 0.0 W/m2 CLR
01:52 -3.8 °C -6.4 °C 1027.3 hPa Calm     82 % 0.0 mm 0.0 W/m2 CLR
01:57 -3.9 °C -6.5 °C 1027.0 hPa Calm     82 % 0.0 mm 0.0 W/m2 CLR
02:02 -3.9 °C -6.6 °C 1027.0 hPa Calm     82 % 0.0 mm 0.0 W/m2 CLR
02:07 -4.0 °C -6.4 °C 1027.3 hPa Calm     83 % 0.0 mm 0.0 W/m2 CLR
02:12 -4.1 °C -6.5 °C 1027.3 hPa Calm     83 % 0.0 mm 0.0 W/m2 CLR
02:17 -4.2 °C -6.8 °C 1027.3 hPa Calm     82 % 0.0 mm 0.0 W/m2 CLR
02:22 -4.3 °C -6.7 °C 1027.0 hPa Calm     83 % 0.0 mm 0.0 W/m2 CLR
02:27 -4.2 °C -6.5 °C 1027.3 hPa Calm     84 % 0.0 mm 0.0 W/m2 CLR
02:32 -4.2 °C -6.5 °C 1027.3 hPa South 3.7 km/h 3.7 km/h 84 % 0.0 mm 0.0 W/m2 CLR
02:37 -4.1 °C -6.4 °C 1027.3 hPa Calm     84 % 0.0 mm 0.0 W/m2 CLR
02:42 -4.3 °C -6.7 °C 1027.3 hPa Calm     83 % 0.0 mm 0.0 W/m2 CLR
02:47 -4.4 °C -6.7 °C 1027.3 hPa Calm     84 % 0.0 mm 0.0 W/m2 CLR
02:52 -4.4 °C -6.6 °C 1027.3 hPa Calm     85 % 0.0 mm 0.0 W/m2 CLR
02:57 -4.2 °C -6.2 °C 1027.3 hPa Calm     86 % 0.0 mm 0.0 W/m2 CLR
03:02 -3.9 °C -5.9 °C 1027.3 hPa Calm     86 % 0.0 mm 0.0 W/m2 CLR
03:07 -3.7 °C -5.7 °C 1027.7 hPa SW 4.8 km/h   86 % 0.0 mm 0.0 W/m2 CLR
03:12 -3.4 °C -5.4 °C 1027.7 hPa SW 5.6 km/h 5.6 km/h 86 % 0.0 mm 0.0 W/m2 CLR
03:17 -3.1 °C -5.2 °C 1027.3 hPa WSW 8.0 km/h 8.0 km/h 85 % 0.0 mm 0.0 W/m2 CLR
03:22 -2.5 °C -4.8 °C 1027.3 hPa WSW 5.6 km/h 5.6 km/h 84 % 0.0 mm 0.0 W/m2 CLR
03:27 -2.2 °C -4.8 °C 1027.3 hPa WSW 9.3 km/h 9.3 km/h 82 % 0.0 mm 0.0 W/m2 CLR
03:32 -1.9 °C -4.8 °C 1027.3 hPa WSW 5.6 km/h 5.6 km/h 81 % 0.0 mm 0.0 W/m2 CLR
03:37 -1.9 °C -4.9 °C 1027.3 hPa Calm     80 % 0.0 mm 0.0 W/m2 CLR
03:42 -1.9 °C -4.9 °C 1027.0 hPa WSW 3.2 km/h 3.2 km/h 80 % 0.0 mm 0.0 W/m2 CLR
03:47 -2.2 °C -5.2 °C 1027.3 hPa Calm     80 % 0.0 mm 0.0 W/m2 CLR
03:52 -2.2 °C -5.2 °C 1027.3 hPa Calm     80 % 0.0 mm 0.0 W/m2 CLR
03:57 -2.2 °C -5.0 °C 1027.3 hPa Calm     81 % 0.0 mm 0.0 W/m2 CLR
04:02 -2.0 °C -4.8 °C 1027.3 hPa Calm     81 % 0.0 mm 0.0 W/m2 CLR
04:07 -1.9 °C -4.9 °C 1027.3 hPa Calm   0.5 km/h 80 % 0.0 mm 0.0 W/m2 CLR
04:12 -2.0 °C -5.0 °C 1027.3 hPa Calm     80 % 0.0 mm 0.0 W/m2 CLR
04:17 -2.1 °C -5.1 °C 1027.0 hPa Calm     80 % 0.0 mm 0.0 W/m2 CLR
04:22 -2.1 °C -4.9 °C 1027.0 hPa SSE 5.6 km/h 5.6 km/h 81 % 0.0 mm 0.0 W/m2 CLR
04:27 -1.9 °C -4.7 °C 1027.0 hPa West 5.6 km/h 5.6 km/h 81 % 0.0 mm 0.0 W/m2 CLR
04:32 -1.7 °C -4.7 °C 1027.3 hPa WSW 5.6 km/h 5.6 km/h 80 % 0.0 mm 0.0 W/m2 CLR
04:37 -1.7 °C -4.8 °C 1027.3 hPa SW 5.6 km/h 5.6 km/h 79 % 0.0 mm 0.0 W/m2 CLR
04:43 -1.7 °C -4.9 °C 1027.0 hPa SW 3.7 km/h 3.7 km/h 79 % 0.0 mm 0.0 W/m2 CLR
04:48 -1.8 °C -5.0 °C 1027.0 hPa SW 5.6 km/h 5.6 km/h 79 % 0.0 mm 0.0 W/m2 CLR
04:53 -1.9 °C -4.9 °C 1027.3 hPa WSW 5.6 km/h 5.6 km/h 80 % 0.0 mm 0.0 W/m2 CLR
04:58 -1.9 °C -4.9 °C 1027.3 hPa SW 5.6 km/h 5.6 km/h 80 % 0.0 mm 0.0 W/m2 CLR
05:03 -1.9 °C -4.9 °C 1027.3 hPa SW 5.6 km/h 5.6 km/h 80 % 0.0 mm 0.0 W/m2 CLR
05:08 -2.0 °C -5.0 °C 1027.0 hPa SW 3.7 km/h 3.7 km/h 80 % 0.0 mm 0.0 W/m2 CLR
05:13 -2.1 °C -5.1 °C 1027.3 hPa Calm     80 % 0.0 mm 0.0 W/m2 CLR
05:18 -2.1 °C -5.1 °C 1027.3 hPa Calm     80 % 0.0 mm 0.0 W/m2 CLR
05:23 -2.1 °C -4.9 °C 1027.0 hPa SW 3.7 km/h 3.7 km/h 81 % 0.0 mm 0.0 W/m2 CLR
05:28 -2.1 °C -5.1 °C 1027.0 hPa Calm     80 % 0.0 mm 0.0 W/m2 CLR
05:33 -2.2 °C -5.2 °C 1027.0 hPa Calm     80 % 0.0 mm 0.0 W/m2 CLR
05:38 -2.2 °C -5.1 °C 1027.0 hPa WSW 5.6 km/h 5.6 km/h 81 % 0.0 mm 0.0 W/m2 CLR
05:43 -2.1 °C -4.9 °C 1027.0 hPa West 7.4 km/h 7.4 km/h 81 % 0.0 mm 0.0 W/m2 CLR
05:48 -2.1 °C -5.1 °C 1027.0 hPa West 5.6 km/h 5.6 km/h 80 % 0.0 mm 0.0 W/m2 CLR
05:53 -2.1 °C -5.1 °C 1027.3 hPa West 3.7 km/h 3.7 km/h 80 % 0.0 mm 0.0 W/m2 CLR
05:58 -2.1 °C -5.1 °C 1027.3 hPa Calm     80 % 0.0 mm 0.0 W/m2 CLR
06:03 -2.3 °C -5.3 °C 1027.3 hPa West 3.7 km/h 3.7 km/h 80 % 0.0 mm 0.0 W/m2 CLR
06:08 -2.3 °C -5.2 °C 1027.0 hPa West 7.4 km/h 7.4 km/h 81 % 0.0 mm 0.0 W/m2 CLR
06:13 -2.1 °C -4.9 °C 1027.0 hPa West 5.6 km/h 5.6 km/h 81 % 0.0 mm 0.0 W/m2 CLR
06:18 -2.1 °C -4.9 °C 1027.3 hPa Calm     81 % 0.0 mm 0.0 W/m2 CLR
06:23 -2.2 °C -5.2 °C 1027.3 hPa Calm     80 % 0.0 mm 0.0 W/m2 CLR
06:28 -2.4 °C -5.2 °C 1027.3 hPa WSW 3.7 km/h 3.7 km/h 81 % 0.0 mm 0.0 W/m2 CLR
06:33 -2.5 °C -5.2 °C 1027.3 hPa Calm     82 % 0.0 mm 0.0 W/m2 CLR
06:38 -2.6 °C -5.3 °C 1027.3 hPa Calm     82 % 0.0 mm 0.0 W/m2 CLR
06:43 -2.7 °C -5.3 °C 1027.3 hPa Calm     82 % 0.0 mm 0.0 W/m2 CLR
06:48 -2.7 °C -5.2 °C 1027.3 hPa Calm     83 % 0.0 mm 0.0 W/m2 CLR
06:53 -2.8 °C -5.3 °C 1027.3 hPa Calm     83 % 0.0 mm 0.0 W/m2 CLR
06:58 -2.8 °C -5.3 °C 1027.3 hPa SSW 6.4 km/h 6.4 km/h 83 % 0.0 mm 0.0 W/m2 CLR
07:03 -2.9 °C -5.4 °C 1027.3 hPa SW 5.6 km/h 5.6 km/h 83 % 0.0 mm 0.0 W/m2 CLR
07:08 -3.0 °C -5.3 °C 1027.3 hPa WSW 5.6 km/h 5.6 km/h 84 % 0.0 mm 0.0 W/m2 CLR
07:13 -3.1 °C -5.4 °C 1027.3 hPa WSW 7.4 km/h 7.4 km/h 84 % 0.0 mm 0.0 W/m2 CLR
07:18 -2.8 °C -5.1 °C 1027.3 hPa West 5.6 km/h 5.6 km/h 84 % 0.0 mm 0.0 W/m2 CLR
07:23 -2.7 °C -5.2 °C 1027.3 hPa Calm     83 % 0.0 mm 0.0 W/m2 CLR
07:28 -2.9 °C -5.4 °C 1027.3 hPa WSW 5.6 km/h 5.6 km/h 83 % 0.0 mm 0.0 W/m2 CLR
07:33 -3.0 °C -5.5 °C 1027.3 hPa SW 5.6 km/h 5.6 km/h 83 % 0.0 mm 0.0 W/m2 CLR
07:38 -3.1 °C -5.6 °C 1027.3 hPa SSW 5.6 km/h 5.6 km/h 83 % 0.0 mm 0.0 W/m2 CLR
07:43 -3.2 °C -5.7 °C 1027.7 hPa Calm     83 % 0.0 mm 0.0 W/m2 CLR
07:48 -3.4 °C -5.7 °C 1027.7 hPa Calm     84 % 0.0 mm 0.0 W/m2 CLR
07:53 -3.5 °C -5.8 °C 1027.7 hPa Calm     84 % 0.0 mm 0.0 W/m2 CLR
07:58 -3.6 °C -5.7 °C 1027.7 hPa Calm     85 % 0.0 mm 0.0 W/m2 CLR
08:03 -3.6 °C -5.8 °C 1027.7 hPa Calm     85 % 0.0 mm 0.0 W/m2 CLR
08:08 -3.7 °C -5.9 °C 1027.7 hPa Calm     85 % 0.0 mm 0.0 W/m2 CLR
08:13 -3.8 °C -6.0 °C 1027.7 hPa Calm     85 % 0.0 mm 0.0 W/m2 CLR
08:18 -3.9 °C -6.1 °C 1027.7 hPa Calm     85 % 0.0 mm 0.0 W/m2 CLR
08:23 -4.1 °C -6.3 °C 1027.7 hPa Calm     85 % 0.0 mm 0.0 W/m2 OVC
08:28 -4.1 °C -6.1 °C 1027.7 hPa Calm     86 % 0.0 mm 7.0 W/m2 OVC
08:33 -4.2 °C -6.2 °C 1027.7 hPa Calm     86 % 0.0 mm 11.0 W/m2 OVC
08:38 -4.3 °C -6.3 °C 1027.7 hPa Calm     86 % 0.0 mm 14.0 W/m2 BKN
08:43 -4.2 °C -6.1 °C 1027.7 hPa Calm     87 % 0.0 mm 19.0 W/m2 BKN
08:48 -4.2 °C -6.1 °C 1027.7 hPa SW 1.6 km/h 1.6 km/h 87 % 0.0 mm 25.0 W/m2 BKN
08:53 -4.3 °C -6.2 °C 1028.0 hPa SW 3.7 km/h 3.7 km/h 87 % 0.0 mm 28.0 W/m2 BKN
08:58 -4.3 °C -6.2 °C 1027.7 hPa SW 3.7 km/h 3.7 km/h 87 % 0.0 mm 33.0 W/m2 BKN
09:03 -4.3 °C -6.1 °C 1027.7 hPa Calm     87 % 0.0 mm 40.0 W/m2 BKN
09:08 -4.2 °C -5.9 °C 1027.7 hPa Calm     88 % 0.0 mm 47.0 W/m2 BKN
09:13 -4.2 °C -6.0 °C 1028.0 hPa Calm     87 % 0.0 mm 51.0 W/m2 BKN
09:18 -4.1 °C -5.9 °C 1028.0 hPa Calm     87 % 0.0 mm 54.0 W/m2 BKN
09:23 -3.9 °C -5.8 °C 1028.0 hPa Calm     87 % 0.0 mm 62.0 W/m2 BKN
09:28 -3.9 °C -5.7 °C 1028.0 hPa Calm     87 % 0.0 mm 79.0 W/m2 BKN
09:33 -3.8 °C -5.6 °C 1027.7 hPa Calm     87 % 0.0 mm 114.0 W/m2 BKN
09:38 -3.6 °C -5.4 °C 1027.7 hPa Calm     87 % 0.0 mm 137.0 W/m2 BKN
09:43 -3.2 °C -5.0 °C 1027.7 hPa Calm     87 % 0.0 mm 163.0 W/m2 BKN
09:48 -2.9 °C -4.9 °C 1027.7 hPa Calm     86 % 0.0 mm 183.0 W/m2 BKN
09:53 -2.6 °C -4.6 °C 1028.0 hPa Calm     86 % 0.0 mm 178.0 W/m2 BKN
09:58 -2.2 °C -4.3 °C 1028.0 hPa Calm     85 % 0.0 mm 181.0 W/m2 SCT
10:03 -1.8 °C -4.1 °C 1028.0 hPa Calm     84 % 0.0 mm 225.0 W/m2 BKN
10:08 -1.3 °C -3.6 °C 1027.7 hPa Calm     84 % 0.0 mm 285.0 W/m2 SCT
10:13 -0.7 °C -3.3 °C 1027.7 hPa Calm     82 % 0.0 mm 302.0 W/m2 SCT
10:18 -0.2 °C -3.1 °C 1027.7 hPa Calm     81 % 0.0 mm 281.0 W/m2 SCT
10:23 0.3 °C -2.9 °C 1027.7 hPa West 6.4 km/h 6.4 km/h 79 % 0.0 mm 271.0 W/m2 SCT
10:29 0.6 °C -3.0 °C 1027.3 hPa WNW 9.7 km/h 9.7 km/h 77 % 0.0 mm 271.0 W/m2 SCT
10:34 0.8 °C -3.0 °C 1027.3 hPa NW 9.7 km/h 9.7 km/h 76 % 0.0 mm 288.0 W/m2 SCT
10:39 0.9 °C -3.0 °C 1027.3 hPa NW 11.3 km/h 11.3 km/h 75 % 0.0 mm 294.0 W/m2 SCT
10:44 1.0 °C -3.1 °C 1027.3 hPa NW 11.3 km/h 11.3 km/h 74 % 0.0 mm 290.0 W/m2 SCT
10:49 1.0 °C -3.3 °C 1027.3 hPa NW 14.8 km/h 14.8 km/h 73 % 0.0 mm 288.0 W/m2 SCT
10:54 0.9 °C -3.3 °C 1027.3 hPa NW 16.7 km/h 16.7 km/h 73 % 0.0 mm 295.0 W/m2 SCT
10:59 1.0 °C -3.3 °C 1027.3 hPa NW 13.0 km/h 13.0 km/h 73 % 0.0 mm 325.0 W/m2 SCT
11:04 1.1 °C -3.2 °C 1027.3 hPa NW 11.1 km/h 11.1 km/h 73 % 0.0 mm 322.0 W/m2 SCT
11:09 1.2 °C -3.1 °C 1027.3 hPa NW 11.1 km/h 11.1 km/h 73 % 0.0 mm 341.0 W/m2 SCT
11:14 1.3 °C -3.2 °C 1027.3 hPa NW 13.0 km/h 13.0 km/h 72 % 0.0 mm 353.0 W/m2 SCT
11:19 1.3 °C -3.2 °C 1027.3 hPa NW 9.3 km/h 9.3 km/h 72 % 0.0 mm 336.0 W/m2 SCT
11:24 1.4 °C -3.3 °C 1027.3 hPa NW 13.0 km/h 13.0 km/h 71 % 0.0 mm 364.0 W/m2 SCT
11:29 1.3 °C -3.2 °C 1027.3 hPa NW 5.6 km/h   72 % 0.0 mm 369.0 W/m2 SCT
11:34 1.5 °C -3.0 °C 1027.3 hPa NW 11.1 km/h 11.6 km/h 72 % 0.0 mm 355.0 W/m2 SCT
11:39 1.5 °C -3.2 °C 1027.3 hPa NW 13.0 km/h 13.0 km/h 71 % 0.0 mm 364.0 W/m2 SCT
11:44 1.6 °C -3.3 °C 1027.3 hPa WNW 9.3 km/h 9.3 km/h 70 % 0.0 mm 371.0 W/m2 SCT
11:49 1.8 °C -3.1 °C 1027.0 hPa WNW 9.3 km/h 9.3 km/h 70 % 0.0 mm 374.0 W/m2 SCT
11:54 1.9 °C -2.9 °C 1026.6 hPa NNW 11.3 km/h 11.3 km/h 70 % 0.0 mm 394.0 W/m2 SCT
11:59 2.0 °C -3.1 °C 1026.6 hPa NW 16.7 km/h 16.7 km/h 69 % 0.0 mm 429.0 W/m2 FEW
12:04 2.1 °C -3.2 °C 1026.6 hPa NW 14.8 km/h 14.8 km/h 68 % 0.0 mm 431.0 W/m2 FEW
12:09 2.1 °C -3.2 °C 1026.6 hPa NW 14.8 km/h 14.8 km/h 68 % 0.0 mm 179.0 W/m2 SCT
12:14 2.1 °C -3.2 °C 1026.3 hPa NW 9.7 km/h 9.7 km/h 68 % 0.0 mm 517.0 W/m2 SCT
12:20 2.3 °C -3.0 °C 1026.3 hPa WNW 16.7 km/h 16.7 km/h 68 % 0.0 mm 471.0 W/m2 SCT
12:25 2.4 °C -3.1 °C 1026.3 hPa NW 13.0 km/h 13.0 km/h 67 % 0.0 mm 392.0 W/m2 CLR
12:30 2.3 °C -3.2 °C 1026.0 hPa NW 9.7 km/h 9.7 km/h 67 % 0.0 mm 165.0 W/m2 FEW
12:35 2.1 °C -3.4 °C 1026.0 hPa NW 3.2 km/h 3.2 km/h 67 % 0.0 mm 146.0 W/m2 BKN
12:40 2.1 °C -3.2 °C 1026.0 hPa NW 7.4 km/h 7.4 km/h 68 % 0.0 mm 156.0 W/m2 BKN
12:45 2.2 °C -3.1 °C 1026.0 hPa NW 9.3 km/h 9.3 km/h 68 % 0.0 mm 216.0 W/m2 BKN
12:50 2.2 °C -3.3 °C 1026.0 hPa NW 5.6 km/h 5.6 km/h 67 % 0.0 mm 163.0 W/m2 BKN
12:55 2.1 °C -3.2 °C 1026.0 hPa NNW 9.3 km/h 9.3 km/h 68 % 0.0 mm 123.0 W/m2 BKN
13:00 1.9 °C -3.2 °C 1026.0 hPa Calm     69 % 0.0 mm 104.0 W/m2 BKN
13:05 1.9 °C -3.2 °C 1026.0 hPa North 9.3 km/h 9.3 km/h 69 % 0.0 mm 77.0 W/m2 BKN
13:10 1.9 °C -3.0 °C 1026.0 hPa North 5.6 km/h 5.6 km/h 70 % 0.0 mm 63.0 W/m2 BKN
13:15 1.8 °C -3.1 °C 1026.0 hPa North 5.6 km/h 5.6 km/h 70 % 0.0 mm 74.0 W/m2 BKN
13:20 1.8 °C -3.1 °C 1026.0 hPa North 5.6 km/h 5.6 km/h 70 % 0.0 mm 95.0 W/m2 BKN
13:25 1.8 °C -3.1 °C 1025.6 hPa North 5.6 km/h 5.6 km/h 70 % 0.0 mm 72.0 W/m2 BKN
13:30 1.8 °C -3.1 °C 1025.6 hPa NW 4.8 km/h 4.8 km/h 70 % 0.0 mm 53.0 W/m2 BKN
13:35 1.8 °C -3.1 °C 1025.6 hPa NNW 7.4 km/h 7.4 km/h 70 % 0.0 mm 65.0 W/m2 BKN
13:40 1.7 °C -3.2 °C 1025.6 hPa Calm     70 % 0.0 mm 111.0 W/m2 BKN
13:45 1.7 °C -3.0 °C 1025.6 hPa NNW 7.4 km/h 7.4 km/h 71 % 0.0 mm 69.0 W/m2 BKN
13:50 1.7 °C -3.1 °C 1025.3 hPa Calm     71 % 0.0 mm 46.0 W/m2 BKN
13:55 1.7 °C -3.1 °C 1025.3 hPa NW 5.6 km/h 5.6 km/h 71 % 0.0 mm 35.0 W/m2 BKN
14:00 1.6 °C -3.1 °C 1025.3 hPa Calm     71 % 0.0 mm 33.0 W/m2 BKN
14:05 1.6 °C -2.9 °C 1025.3 hPa Calm     72 % 0.0 mm 56.0 W/m2 BKN
14:10 1.6 °C -3.1 °C 1025.3 hPa Calm     71 % 0.0 mm 65.0 W/m2 BKN
14:15 1.5 °C -3.0 °C 1025.3 hPa NNW 7.4 km/h 7.4 km/h 72 % 0.0 mm 46.0 W/m2 BKN
14:20 1.6 °C -2.9 °C 1025.3 hPa NW 5.6 km/h 5.6 km/h 72 % 0.0 mm 46.0 W/m2 BKN
14:25 1.5 °C -3.0 °C 1024.9 hPa NW 5.6 km/h 5.6 km/h 72 % 0.0 mm 44.0 W/m2 BKN
14:30 1.4 °C -3.1 °C 1024.9 hPa NW 7.4 km/h 7.4 km/h 72 % 0.0 mm 54.0 W/m2 BKN
14:35 1.5 °C -2.8 °C 1024.9 hPa NNW 8.0 km/h 8.0 km/h 73 % 0.0 mm 81.0 W/m2 BKN
14:40 1.6 °C -2.9 °C 1024.9 hPa NNW 5.6 km/h 5.6 km/h 72 % 0.0 mm 74.0 W/m2 BKN
14:45 1.6 °C -2.9 °C 1024.9 hPa Calm     72 % 0.0 mm 60.0 W/m2 BKN
14:50 1.6 °C -2.9 °C 1024.6 hPa NW 5.6 km/h 5.6 km/h 72 % 0.0 mm 77.0 W/m2 BKN
14:55 1.7 °C -2.8 °C 1024.6 hPa NW 5.6 km/h 5.6 km/h 72 % 0.0 mm 65.0 W/m2 BKN
15:00 1.7 °C -2.8 °C 1024.6 hPa NW 3.7 km/h   72 % 0.0 mm 77.0 W/m2 BKN
15:05 1.7 °C -2.8 °C 1024.6 hPa Calm     72 % 0.0 mm 90.0 W/m2 BKN
15:10 1.7 °C -2.8 °C 1024.6 hPa Calm     72 % 0.0 mm 113.0 W/m2 BKN
15:15 1.8 °C -2.7 °C 1024.6 hPa Calm     72 % 0.0 mm 146.0 W/m2 BKN
15:20 1.8 °C -2.9 °C 1024.6 hPa Calm     71 % 0.0 mm 142.0 W/m2 SCT
15:25 1.9 °C -2.8 °C 1024.6 hPa NW 3.7 km/h 3.7 km/h 71 % 0.0 mm 105.0 W/m2 SCT
15:30 1.9 °C -3.0 °C 1024.6 hPa WNW 5.6 km/h 5.6 km/h 70 % 0.0 mm 84.0 W/m2 BKN
15:35 1.9 °C -3.0 °C 1024.6 hPa WNW 5.6 km/h 5.6 km/h 70 % 0.0 mm 65.0 W/m2 BKN
15:40 1.9 °C -2.9 °C 1024.3 hPa Calm     70 % 0.0 mm 70.0 W/m2 BKN
15:45 1.9 °C -3.2 °C 1024.3 hPa WNW 1.9 km/h   69 % 0.0 mm 91.0 W/m2 BKN
15:50 2.0 °C -3.3 °C 1024.6 hPa WNW 4.8 km/h 4.8 km/h 68 % 0.0 mm 63.0 W/m2 BKN
15:55 2.1 °C -3.4 °C 1024.6 hPa WNW 8.0 km/h 8.0 km/h 67 % 0.0 mm 88.0 W/m2 BKN
16:00 2.1 °C -3.4 °C 1024.6 hPa NW 7.4 km/h 7.4 km/h 67 % 0.0 mm 76.0 W/m2 BKN
16:05 2.1 °C -3.4 °C 1024.6 hPa NW 5.6 km/h 5.6 km/h 67 % 0.0 mm 76.0 W/m2 SCT
16:10 2.1 °C -3.4 °C 1024.6 hPa Calm     67 % 0.0 mm 74.0 W/m2 SCT
16:15 2.1 °C -3.6 °C 1024.6 hPa Calm     66 % 0.0 mm 60.0 W/m2 SCT
16:20 2.1 °C -3.6 °C 1024.3 hPa Calm     66 % 0.0 mm 65.0 W/m2 SCT
16:25 2.1 °C -3.4 °C 1024.3 hPa NW 6.4 km/h 6.4 km/h 67 % 0.0 mm 62.0 W/m2 FEW
16:30 2.1 °C -3.6 °C 1024.3 hPa NW 5.6 km/h 5.6 km/h 66 % 0.0 mm 51.0 W/m2 CLR
16:35 2.1 °C -3.6 °C 1024.3 hPa Calm     66 % 0.0 mm 39.0 W/m2 CLR
16:41 2.1 °C -3.6 °C 1024.3 hPa Calm     66 % 0.0 mm 40.0 W/m2 CLR
16:46 2.1 °C -3.8 °C 1024.3 hPa Calm     65 % 0.0 mm 47.0 W/m2 CLR
16:51 2.1 °C -3.8 °C 1024.3 hPa Calm     65 % 0.0 mm 39.0 W/m2 SCT
16:56 2.1 °C -3.6 °C 1024.3 hPa Calm     66 % 0.0 mm 33.0 W/m2 OVC
17:01 2.1 °C -3.8 °C 1024.3 hPa Calm     65 % 0.0 mm 26.0 W/m2 OVC
17:06 2.1 °C -3.6 °C 1024.3 hPa Calm     66 % 0.0 mm 18.0 W/m2 OVC
17:11 2.1 °C -3.6 °C 1024.3 hPa Calm     66 % 0.0 mm 26.0 W/m2 OVC
17:16 2.1 °C -3.8 °C 1024.3 hPa Calm     65 % 0.0 mm 23.0 W/m2 OVC
17:21 2.1 °C -3.7 °C 1024.3 hPa Calm     66 % 0.0 mm 19.0 W/m2 OVC
17:26 2.1 °C -3.7 °C 1024.3 hPa Calm     66 % 0.0 mm 21.0 W/m2 OVC
17:31 2.1 °C -3.7 °C 1024.3 hPa Calm     66 % 0.0 mm 21.0 W/m2 OVC
17:36 2.1 °C -3.4 °C 1024.3 hPa Calm     67 % 0.0 mm 12.0 W/m2 OVC
17:41 2.1 °C -3.4 °C 1024.3 hPa Calm     67 % 0.0 mm 9.0 W/m2 OVC
17:46 2.0 °C -3.7 °C 1024.3 hPa Calm     66 % 0.0 mm 5.0 W/m2 OVC
17:51 2.0 °C -3.5 °C 1024.6 hPa Calm     67 % 0.0 mm 0.0 W/m2 OVC
17:56 2.0 °C -3.5 °C 1024.3 hPa Calm     67 % 0.0 mm 0.0 W/m2 OVC
18:01 1.9 °C -3.6 °C 1024.3 hPa Calm     67 % 0.0 mm 0.0 W/m2 OVC
18:06 1.9 °C -3.6 °C 1024.6 hPa Calm     67 % 0.0 mm 0.0 W/m2 CLR
18:11 1.9 °C -3.6 °C 1024.3 hPa Calm     67 % 0.0 mm 0.0 W/m2 CLR
18:16 1.9 °C -3.6 °C 1024.6 hPa Calm     67 % 0.0 mm 0.0 W/m2 CLR
18:21 1.8 °C -3.4 °C 1024.6 hPa Calm     68 % 0.0 mm 0.0 W/m2 CLR
18:26 1.8 °C -3.5 °C 1024.6 hPa Calm     68 % 0.0 mm 0.0 W/m2 CLR
18:31 1.7 °C -3.6 °C 1024.6 hPa Calm     68 % 0.0 mm 0.0 W/m2 CLR
18:36 1.7 °C -3.6 °C 1024.6 hPa Calm     68 % 0.0 mm 0.0 W/m2 CLR
18:41 1.7 °C -3.6 °C 1024.6 hPa Calm     68 % 0.0 mm 0.0 W/m2 CLR
18:46 1.7 °C -3.4 °C 1024.6 hPa Calm     69 % 0.0 mm 0.0 W/m2 CLR
18:51 1.7 °C -3.6 °C 1024.6 hPa Calm     68 % 0.0 mm 0.0 W/m2 CLR
18:56 1.7 °C -3.6 °C 1024.6 hPa Calm     68 % 0.0 mm 0.0 W/m2 CLR
19:01 1.7 °C -3.6 °C 1024.6 hPa Calm     68 % 0.0 mm 0.0 W/m2 CLR
19:06 1.7 °C -3.6 °C 1024.6 hPa Calm     68 % 0.0 mm 0.0 W/m2 CLR
19:11 1.7 °C -3.6 °C 1024.6 hPa Calm     68 % 0.0 mm 0.0 W/m2 CLR
19:16 1.6 °C -3.4 °C 1024.6 hPa Calm     69 % 0.0 mm 0.0 W/m2 CLR
19:21 1.6 °C -3.4 °C 1024.6 hPa Calm     69 % 0.0 mm 0.0 W/m2 CLR
19:26 1.6 °C -3.5 °C 1024.6 hPa Calm     69 % 0.0 mm 0.0 W/m2 CLR
19:31 1.5 °C -3.6 °C 1024.6 hPa Calm     69 % 0.0 mm 0.0 W/m2 CLR
19:36 1.5 °C -3.4 °C 1024.6 hPa Calm     70 % 0.0 mm 0.0 W/m2 CLR
19:41 1.4 °C -3.3 °C 1024.6 hPa Calm     71 % 0.0 mm 0.0 W/m2 CLR
19:46 1.3 °C -3.2 °C 1024.6 hPa Calm     72 % 0.0 mm 0.0 W/m2 CLR
19:51 1.3 °C -3.2 °C 1024.6 hPa Calm     72 % 0.0 mm 0.0 W/m2 CLR
19:56 1.3 °C -3.2 °C 1024.6 hPa Calm     72 % 0.0 mm 0.0 W/m2 CLR
20:01 1.3 °C -3.2 °C 1024.6 hPa Calm     72 % 0.0 mm 0.0 W/m2 CLR
20:06 1.3 °C -3.3 °C 1024.6 hPa Calm     71 % 0.0 mm 0.0 W/m2 CLR
20:11 1.3 °C -3.3 °C 1024.6 hPa Calm     71 % 0.0 mm 0.0 W/m2 CLR
20:16 1.3 °C -3.2 °C 1024.6 hPa Calm     72 % 0.0 mm 0.0 W/m2 CLR
20:21 1.3 °C -3.2 °C 1024.6 hPa Calm     72 % 0.0 mm 0.0 W/m2 CLR
20:26 1.3 °C -3.2 °C 1024.6 hPa Calm     72 % 0.0 mm 0.0 W/m2 CLR
20:31 1.2 °C -3.3 °C 1024.6 hPa Calm     72 % 0.0 mm 0.0 W/m2 CLR
20:36 1.3 °C -3.2 °C 1024.6 hPa Calm     72 % 0.0 mm 0.0 W/m2 CLR
20:41 1.3 °C -3.2 °C 1024.6 hPa Calm     72 % 0.0 mm 0.0 W/m2 CLR
20:46 1.3 °C -3.1 °C 1024.6 hPa Calm     73 % 0.0 mm 0.0 W/m2 CLR
20:52 1.3 °C -3.1 °C 1024.6 hPa Calm     73 % 0.0 mm 0.0 W/m2 CLR
20:57 1.3 °C -3.1 °C 1024.6 hPa Calm     73 % 0.0 mm 0.0 W/m2 CLR
21:02 1.3 °C -3.1 °C 1024.6 hPa Calm     73 % 0.0 mm 0.0 W/m2 CLR
21:07 1.3 °C -3.1 °C 1024.9 hPa Calm     73 % 0.0 mm 0.0 W/m2 CLR
21:12 1.3 °C -2.8 °C 1024.9 hPa Calm     74 % 0.0 mm 0.0 W/m2 CLR
21:17 1.3 °C -2.8 °C 1024.6 hPa Calm     74 % 0.0 mm 0.0 W/m2 CLR
21:22 1.3 °C -2.8 °C 1024.6 hPa Calm     74 % 0.0 mm 0.0 W/m2 CLR
21:27 1.3 °C -2.8 °C 1024.6 hPa Calm     74 % 0.0 mm 0.0 W/m2 CLR
21:32 1.3 °C -2.8 °C 1024.6 hPa Calm     74 % 0.0 mm 0.0 W/m2 CLR
21:37 1.3 °C -2.8 °C 1024.6 hPa Calm     74 % 0.0 mm 0.0 W/m2 CLR
21:42 1.4 °C -2.7 °C 1024.6 hPa Calm     74 % 0.0 mm 0.0 W/m2 CLR
21:47 1.4 °C -2.7 °C 1024.6 hPa Calm     74 % 0.0 mm 0.0 W/m2 CLR
21:52 1.4 °C -2.7 °C 1024.6 hPa Calm     74 % 0.0 mm 0.0 W/m2 CLR
21:57 1.5 °C -2.6 °C 1024.6 hPa Calm     74 % 0.0 mm 0.0 W/m2 CLR
22:02 1.5 °C -2.6 °C 1024.6 hPa Calm     74 % 0.0 mm 0.0 W/m2 CLR
22:07 1.6 °C -2.6 °C 1024.6 hPa Calm     74 % 0.0 mm 0.0 W/m2 CLR
22:12 1.6 °C -2.6 °C 1024.6 hPa Calm     74 % 0.0 mm 0.0 W/m2 CLR
22:17 1.6 °C -2.6 °C 1024.6 hPa Calm     74 % 0.0 mm 0.0 W/m2 CLR
22:22 1.5 °C -2.6 °C 1024.6 hPa Calm     74 % 0.0 mm 0.0 W/m2 CLR
22:27 1.5 °C -2.6 °C 1024.6 hPa Calm     74 % 0.0 mm 0.0 W/m2 CLR
22:32 1.5 °C -2.6 °C 1024.6 hPa Calm     74 % 0.0 mm 0.0 W/m2 CLR
22:37 1.5 °C -2.6 °C 1024.3 hPa Calm     74 % 0.0 mm 0.0 W/m2 CLR
22:42 1.6 °C -2.6 °C 1024.3 hPa Calm     74 % 0.0 mm 0.0 W/m2 CLR
22:47 1.6 °C -2.6 °C 1024.3 hPa Calm     74 % 0.0 mm 0.0 W/m2 CLR
22:52 1.6 °C -2.4 °C 1024.3 hPa Calm     75 % 0.0 mm 0.0 W/m2 CLR
22:57 1.6 °C -2.4 °C 1024.3 hPa Calm     75 % 0.0 mm 0.0 W/m2 CLR
23:02 1.6 °C -2.4 °C 1024.3 hPa Calm     75 % 0.0 mm 0.0 W/m2 CLR
23:07 1.6 °C -2.3 °C 1024.6 hPa Calm     75 % 0.0 mm 0.0 W/m2 CLR
23:12 1.6 °C -2.3 °C 1024.6 hPa Calm     75 % 0.0 mm 0.0 W/m2 CLR
23:17 1.6 °C -2.3 °C 1024.6 hPa Calm     75 % 0.0 mm 0.0 W/m2 CLR
23:22 1.6 °C -2.3 °C 1024.3 hPa Calm     75 % 0.0 mm 0.0 W/m2 CLR
23:27 1.7 °C -2.3 °C 1024.3 hPa Calm     75 % 0.0 mm 0.0 W/m2 CLR
23:32 1.7 °C -2.3 °C 1024.3 hPa Calm     75 % 0.0 mm 0.0 W/m2 CLR
23:37 1.7 °C -2.3 °C 1024.3 hPa Calm     75 % 0.0 mm 0.0 W/m2 CLR
23:42 1.7 °C -2.3 °C 1024.3 hPa Calm     75 % 0.0 mm 0.0 W/m2 CLR
23:47 1.7 °C -2.1 °C 1024.3 hPa Calm     76 % 0.0 mm 0.0 W/m2 CLR
23:52 1.7 °C -2.1 °C 1024.3 hPa Calm     76 % 0.0 mm 0.0 W/m2 CLR
23:57 1.6 °C -2.0 °C 1024.3 hPa Calm     77 % 0.0 mm 0.0 W/m2 CLR
Lo Temps de Massalio
Compliments of Weather Underground - 1.25 mb